createdAt,value
2019-03-27T00:00:43.528Z,1014.45
2019-03-27T00:01:34.088Z,1014.46
2019-03-27T00:02:34.079Z,1014.39
2019-03-27T00:03:34.071Z,1014.49
2019-03-27T00:04:34.048Z,1014.38
2019-03-27T00:05:34.070Z,1014.44
2019-03-27T00:06:34.027Z,1014.38
2019-03-27T00:07:34.025Z,1014.43
2019-03-27T00:08:34.023Z,1014.47
2019-03-27T00:09:33.998Z,1014.51
2019-03-27T00:10:34.032Z,1014.44
2019-03-27T00:11:33.984Z,1014.41
2019-03-27T00:12:33.981Z,1014.45
2019-03-27T00:13:33.971Z,1014.41
2019-03-27T00:14:33.971Z,1014.40
2019-03-27T00:15:34.074Z,1014.36
2019-03-27T00:16:33.938Z,1014.40
2019-03-27T00:17:33.923Z,1014.43
2019-03-27T00:18:33.914Z,1014.33
2019-03-27T00:19:33.905Z,1014.41
2019-03-27T00:20:33.939Z,1014.39
2019-03-27T00:21:33.880Z,1014.27
2019-03-27T00:22:33.878Z,1014.34
2019-03-27T00:23:33.873Z,1014.35
2019-03-27T00:24:33.846Z,1014.34
2019-03-27T00:25:33.864Z,1014.37
2019-03-27T00:26:33.824Z,1014.41
2019-03-27T00:27:33.815Z,1014.40
2019-03-27T00:28:33.797Z,1014.35
2019-03-27T00:29:33.801Z,1014.34
2019-03-27T00:30:33.808Z,1014.33
2019-03-27T00:31:33.775Z,1014.31
2019-03-27T00:32:33.761Z,1014.30
2019-03-27T00:33:33.763Z,1014.30
2019-03-27T00:34:33.744Z,1014.34
2019-03-27T00:35:33.770Z,1014.27
2019-03-27T00:36:33.730Z,1014.30
2019-03-27T00:37:33.708Z,1014.31
2019-03-27T00:38:33.743Z,1014.40
2019-03-27T00:39:33.697Z,1014.41
2019-03-27T00:40:33.706Z,1014.39
2019-03-27T00:41:33.681Z,1014.33
2019-03-27T00:42:33.666Z,1014.34
2019-03-27T00:43:33.642Z,1014.38
2019-03-27T00:44:33.632Z,1014.37
2019-03-27T00:45:33.648Z,1014.40
2019-03-27T00:46:33.624Z,1014.36
2019-03-27T00:47:33.606Z,1014.38
2019-03-27T00:48:33.594Z,1014.41
2019-03-27T00:49:33.573Z,1014.39
2019-03-27T00:50:33.600Z,1014.36
2019-03-27T00:51:33.563Z,1014.36
2019-03-27T00:52:33.547Z,1014.41
2019-03-27T00:53:33.551Z,1014.35
2019-03-27T00:54:33.539Z,1014.34
2019-03-27T00:55:33.552Z,1014.38
2019-03-27T00:56:33.516Z,1014.34
2019-03-27T00:57:33.491Z,1014.32
2019-03-27T00:58:33.490Z,1014.37
2019-03-27T00:59:33.480Z,1014.37
2019-03-27T01:00:33.500Z,1014.33
2019-03-27T01:01:33.444Z,1014.32
2019-03-27T01:02:33.435Z,1014.38
2019-03-27T01:03:33.464Z,1014.35
2019-03-27T01:04:33.424Z,1014.36
2019-03-27T01:05:33.426Z,1014.32
2019-03-27T01:06:33.386Z,1014.34
2019-03-27T01:07:33.380Z,1014.31
2019-03-27T01:08:33.385Z,1014.35
2019-03-27T01:09:33.357Z,1014.37
2019-03-27T01:10:33.388Z,1014.33
2019-03-27T01:11:33.337Z,1014.39
2019-03-27T01:12:33.396Z,1014.37
2019-03-27T01:13:33.320Z,1014.40
2019-03-27T01:14:33.310Z,1014.42
2019-03-27T01:15:39.799Z,1014.39
2019-03-27T01:16:34.298Z,1014.42
2019-03-27T01:17:33.289Z,1014.37
2019-03-27T01:18:33.261Z,1014.37
2019-03-27T01:19:33.257Z,1014.40
2019-03-27T01:20:33.273Z,1014.36
2019-03-27T01:21:33.239Z,1014.41
2019-03-27T01:22:33.223Z,1014.37
2019-03-27T01:23:33.210Z,1014.40
2019-03-27T01:24:33.197Z,1014.39
2019-03-27T01:25:33.225Z,1014.35
2019-03-27T01:26:33.173Z,1014.36
2019-03-27T01:27:35.610Z,1014.36
2019-03-27T01:28:33.159Z,1014.34
2019-03-27T01:29:33.140Z,1014.32
2019-03-27T01:30:33.169Z,1014.38
2019-03-27T01:31:33.121Z,1014.34
2019-03-27T01:32:33.121Z,1014.39
2019-03-27T01:33:33.104Z,1014.35
2019-03-27T01:34:33.092Z,1014.41
2019-03-27T01:35:33.136Z,1014.34
2019-03-27T01:36:33.069Z,1014.30
2019-03-27T01:37:33.059Z,1014.35
2019-03-27T01:38:33.043Z,1014.39
2019-03-27T01:39:33.051Z,1014.33
2019-03-27T01:40:33.063Z,1014.34
2019-03-27T01:41:33.020Z,1014.28
2019-03-27T01:42:33.013Z,1014.40
2019-03-27T01:43:33.000Z,1014.28
2019-03-27T01:44:32.980Z,1014.31
2019-03-27T01:45:33.013Z,1014.24
2019-03-27T01:46:32.957Z,1014.25
2019-03-27T01:47:32.945Z,1014.21
2019-03-27T01:48:32.943Z,1014.16
2019-03-27T01:49:32.935Z,1014.23
2019-03-27T01:50:32.947Z,1014.20
2019-03-27T01:51:32.919Z,1014.24
2019-03-27T01:52:32.896Z,1014.19
2019-03-27T01:53:32.890Z,1014.29
2019-03-27T01:54:32.886Z,1014.37
2019-03-27T01:55:32.870Z,1014.29
2019-03-27T01:56:32.882Z,1014.35
2019-03-27T01:57:32.866Z,1014.31
2019-03-27T01:58:32.882Z,1014.24
2019-03-27T01:59:32.823Z,1014.32
2019-03-27T02:00:32.811Z,1014.27
2019-03-27T02:01:32.837Z,1014.23
2019-03-27T02:02:32.793Z,1014.25
2019-03-27T02:03:32.787Z,1014.29
2019-03-27T02:04:32.767Z,1014.31
2019-03-27T02:05:32.756Z,1014.27
2019-03-27T02:06:32.835Z,1014.31
2019-03-27T02:07:32.730Z,1014.27
2019-03-27T02:08:32.801Z,1014.24
2019-03-27T02:09:32.732Z,1014.23
2019-03-27T02:10:32.702Z,1014.06
2019-03-27T02:11:32.729Z,1014.12
2019-03-27T02:12:32.677Z,1014.20
2019-03-27T02:13:32.674Z,1014.10
2019-03-27T02:14:32.660Z,1014.30
2019-03-27T02:15:32.654Z,1014.26
2019-03-27T02:16:32.675Z,1014.25
2019-03-27T02:17:32.630Z,1014.26
2019-03-27T02:18:32.614Z,1014.20
2019-03-27T02:19:32.613Z,1014.20
2019-03-27T02:20:32.599Z,1014.25
2019-03-27T02:21:32.619Z,1014.19
2019-03-27T02:22:32.578Z,1014.33
2019-03-27T02:23:32.559Z,1014.34
2019-03-27T02:24:32.558Z,1014.35
2019-03-27T02:25:32.542Z,1014.37
2019-03-27T02:26:32.562Z,1014.36
2019-03-27T02:27:32.527Z,1014.36
2019-03-27T02:28:32.522Z,1014.32
2019-03-27T02:29:32.493Z,1014.39
2019-03-27T02:30:32.613Z,1014.41
2019-03-27T02:31:32.509Z,1014.40
2019-03-27T02:32:32.479Z,1014.35
2019-03-27T02:33:32.459Z,1014.40
2019-03-27T02:34:32.446Z,1014.41
2019-03-27T02:35:32.433Z,1014.37
2019-03-27T02:36:32.453Z,1014.41
2019-03-27T02:37:32.438Z,1014.41
2019-03-27T02:38:32.430Z,1014.33
2019-03-27T02:39:32.397Z,1014.43
2019-03-27T02:40:32.384Z,1014.37
2019-03-27T02:41:32.408Z,1014.30
2019-03-27T02:42:32.366Z,1014.37
2019-03-27T02:43:32.351Z,1014.26
2019-03-27T02:44:32.338Z,1014.41
2019-03-27T02:45:32.364Z,1014.43
2019-03-27T02:46:32.346Z,1014.46
2019-03-27T02:47:32.305Z,1014.38
2019-03-27T02:48:32.317Z,1014.41
2019-03-27T02:49:32.283Z,1014.42
2019-03-27T02:50:32.271Z,1014.46
2019-03-27T02:51:32.280Z,1014.39
2019-03-27T02:52:32.260Z,1014.43
2019-03-27T02:53:32.237Z,1014.40
2019-03-27T02:54:32.241Z,1014.36
2019-03-27T02:55:32.211Z,1014.42
2019-03-27T02:56:32.247Z,1014.36
2019-03-27T02:57:32.201Z,1014.43
2019-03-27T02:58:32.178Z,1014.35
2019-03-27T02:59:32.176Z,1014.39
2019-03-27T03:00:32.165Z,1014.32
2019-03-27T03:01:32.177Z,1014.27
2019-03-27T03:02:32.144Z,1014.29
2019-03-27T03:03:32.128Z,1014.30
2019-03-27T03:04:32.114Z,1014.31
2019-03-27T03:05:32.121Z,1014.31
2019-03-27T03:06:32.129Z,1014.23
2019-03-27T03:07:32.089Z,1014.32
2019-03-27T03:08:32.092Z,1014.26
2019-03-27T03:09:32.061Z,1014.34
2019-03-27T03:10:32.055Z,1014.36
2019-03-27T03:11:32.067Z,1014.44
2019-03-27T03:12:32.033Z,1014.29
2019-03-27T03:13:32.016Z,1014.38
2019-03-27T03:14:32.022Z,1014.32
2019-03-27T03:15:32.002Z,1014.29
2019-03-27T03:16:42.314Z,1014.30
2019-03-27T03:17:32.971Z,1014.28
2019-03-27T03:18:31.967Z,1014.41
2019-03-27T03:19:31.953Z,1014.31
2019-03-27T03:20:31.944Z,1014.37
2019-03-27T03:21:31.963Z,1014.34
2019-03-27T03:22:31.939Z,1014.36
2019-03-27T03:23:31.916Z,1014.41
2019-03-27T03:24:31.904Z,1014.49
2019-03-27T03:25:31.965Z,1014.37
2019-03-27T03:26:31.908Z,1014.46
2019-03-27T03:27:31.864Z,1014.47
2019-03-27T03:28:31.865Z,1014.40
2019-03-27T03:29:31.862Z,1014.41
2019-03-27T03:30:31.837Z,1014.46
2019-03-27T03:31:31.876Z,1014.47
2019-03-27T03:32:31.818Z,1014.43
2019-03-27T03:33:31.818Z,1014.58
2019-03-27T03:34:31.809Z,1014.39
2019-03-27T03:35:31.813Z,1014.45
2019-03-27T03:36:31.827Z,1014.43
2019-03-27T03:37:31.763Z,1014.46
2019-03-27T03:38:31.754Z,1014.34
2019-03-27T03:39:31.780Z,1014.46
2019-03-27T03:40:31.734Z,1014.42
2019-03-27T03:41:31.757Z,1014.44
2019-03-27T03:42:31.710Z,1014.42
2019-03-27T03:43:31.708Z,1014.51
2019-03-27T03:44:31.690Z,1014.48
2019-03-27T03:45:31.687Z,1014.46
2019-03-27T03:46:31.714Z,1014.43
2019-03-27T03:47:31.656Z,1014.49
2019-03-27T03:48:31.648Z,1014.51
2019-03-27T03:49:31.637Z,1014.39
2019-03-27T03:50:31.618Z,1014.47
2019-03-27T03:51:31.642Z,1014.43
2019-03-27T03:52:31.624Z,1014.49
2019-03-27T03:53:31.590Z,1014.49
2019-03-27T03:54:31.586Z,1014.45
2019-03-27T03:55:31.566Z,1014.54
2019-03-27T03:56:31.608Z,1014.47
2019-03-27T03:57:31.578Z,1014.56
2019-03-27T03:58:31.536Z,1014.60
2019-03-27T03:59:31.524Z,1014.58
2019-03-27T04:00:31.523Z,1014.57
2019-03-27T04:01:31.534Z,1014.64
2019-03-27T04:02:31.506Z,1014.62
2019-03-27T04:03:31.494Z,1014.66
2019-03-27T04:04:31.463Z,1014.62
2019-03-27T04:05:31.459Z,1014.62
2019-03-27T04:06:31.518Z,1014.60
2019-03-27T04:07:31.436Z,1014.55
2019-03-27T04:08:31.443Z,1014.52
2019-03-27T04:09:31.464Z,1014.66
2019-03-27T04:10:31.427Z,1014.63
2019-03-27T04:11:31.441Z,1014.68
2019-03-27T04:12:31.384Z,1014.64
2019-03-27T04:13:31.379Z,1014.57
2019-03-27T04:14:31.376Z,1014.58
2019-03-27T04:15:31.359Z,1014.61
2019-03-27T04:16:31.391Z,1014.61
2019-03-27T04:17:31.337Z,1014.60
2019-03-27T04:18:31.320Z,1014.69
2019-03-27T04:19:31.313Z,1014.63
2019-03-27T04:20:31.339Z,1014.71
2019-03-27T04:21:31.319Z,1014.70
2019-03-27T04:22:31.296Z,1014.76
2019-03-27T04:23:31.292Z,1014.79
2019-03-27T04:24:31.253Z,1014.72
2019-03-27T04:25:53.871Z,1014.67
2019-03-27T04:26:33.652Z,1014.69
2019-03-27T04:27:31.239Z,1014.72
2019-03-27T04:28:31.221Z,1014.75
2019-03-27T04:29:31.208Z,1014.85
2019-03-27T04:30:31.206Z,1014.79
2019-03-27T04:31:31.218Z,1014.80
2019-03-27T04:32:31.203Z,1014.78
2019-03-27T04:33:31.170Z,1014.74
2019-03-27T04:34:31.152Z,1014.72
2019-03-27T04:35:31.138Z,1014.70
2019-03-27T04:36:31.157Z,1014.77
2019-03-27T04:37:31.119Z,1014.67
2019-03-27T04:38:31.150Z,1014.71
2019-03-27T04:39:31.169Z,1014.67
2019-03-27T04:40:32.064Z,1014.65
2019-03-27T04:41:31.227Z,1014.74
2019-03-27T04:42:31.215Z,1014.77
2019-03-27T04:43:31.095Z,1014.80
2019-03-27T04:44:31.171Z,1014.77
2019-03-27T04:45:31.997Z,1014.92
2019-03-27T04:46:31.998Z,1014.93
2019-03-27T04:47:32.285Z,1014.83
2019-03-27T04:48:31.008Z,1014.86
2019-03-27T04:49:30.992Z,1015.00
2019-03-27T04:50:30.973Z,1015.00
2019-03-27T04:51:30.992Z,1014.99
2019-03-27T04:52:30.959Z,1014.96
2019-03-27T04:53:30.942Z,1014.85
2019-03-27T04:54:30.931Z,1014.97
2019-03-27T04:55:30.931Z,1014.89
2019-03-27T04:56:30.941Z,1014.84
2019-03-27T04:57:30.904Z,1014.91
2019-03-27T04:58:30.884Z,1014.90
2019-03-27T04:59:30.888Z,1014.90
2019-03-27T05:00:30.893Z,1014.97
2019-03-27T05:01:30.884Z,1015.01
2019-03-27T05:02:30.907Z,1014.84
2019-03-27T05:03:30.832Z,1014.93
2019-03-27T05:04:30.823Z,1014.98
2019-03-27T05:05:30.816Z,1014.97
2019-03-27T05:06:30.834Z,1014.86
2019-03-27T05:07:30.797Z,1015.00
2019-03-27T05:08:30.788Z,1014.95
2019-03-27T05:09:30.772Z,1014.95
2019-03-27T05:10:30.757Z,1014.93
2019-03-27T05:11:30.779Z,1014.93
2019-03-27T05:12:30.744Z,1014.83
2019-03-27T05:13:30.733Z,1014.99
2019-03-27T05:14:30.713Z,1014.84
2019-03-27T05:15:30.704Z,1014.94
2019-03-27T05:16:30.717Z,1014.94
2019-03-27T05:17:30.695Z,1014.93
2019-03-27T05:18:30.681Z,1014.86
2019-03-27T05:19:30.668Z,1014.88
2019-03-27T05:20:30.655Z,1014.85
2019-03-27T05:21:30.676Z,1014.84
2019-03-27T05:22:41.608Z,1014.85
2019-03-27T05:23:30.642Z,1014.89
2019-03-27T05:24:30.633Z,1014.89
2019-03-27T05:25:30.576Z,1014.86
2019-03-27T05:26:30.629Z,1014.93
2019-03-27T05:27:30.556Z,1014.90
2019-03-27T05:28:30.554Z,1014.91
2019-03-27T05:29:30.543Z,1014.94
2019-03-27T05:30:30.530Z,1015.01
2019-03-27T05:31:30.546Z,1015.03
2019-03-27T05:32:30.549Z,1015.06
2019-03-27T05:33:32.720Z,1015.08
2019-03-27T05:34:30.483Z,1015.13
2019-03-27T05:35:30.476Z,1015.15
2019-03-27T05:36:30.498Z,1015.13
2019-03-27T05:37:30.464Z,1015.20
2019-03-27T05:38:30.441Z,1015.18
2019-03-27T05:39:30.435Z,1015.21
2019-03-27T05:40:30.423Z,1015.14
2019-03-27T05:41:30.449Z,1015.15
2019-03-27T05:42:30.401Z,1015.14
2019-03-27T05:43:30.389Z,1015.19
2019-03-27T05:44:30.377Z,1015.26
2019-03-27T05:45:30.366Z,1015.20
2019-03-27T05:46:30.385Z,1015.32
2019-03-27T05:47:30.358Z,1015.23
2019-03-27T05:48:30.335Z,1015.26
2019-03-27T05:49:30.328Z,1015.29
2019-03-27T05:50:30.315Z,1015.21
2019-03-27T05:51:30.329Z,1015.22
2019-03-27T05:52:30.291Z,1015.27
2019-03-27T05:53:30.276Z,1015.21
2019-03-27T05:54:30.267Z,1015.31
2019-03-27T05:55:30.254Z,1015.34
2019-03-27T05:56:30.281Z,1015.27
2019-03-27T05:57:30.234Z,1015.34
2019-03-27T05:58:30.224Z,1015.34
2019-03-27T05:59:30.213Z,1015.35
2019-03-27T06:00:33.281Z,1015.45
2019-03-27T06:01:30.222Z,1015.36
2019-03-27T06:02:30.191Z,1015.42
2019-03-27T06:03:30.174Z,1015.40
2019-03-27T06:04:30.158Z,1015.35
2019-03-27T06:05:30.149Z,1015.35
2019-03-27T06:06:30.160Z,1015.38
2019-03-27T06:07:30.126Z,1015.49
2019-03-27T06:08:30.120Z,1015.52
2019-03-27T06:09:30.103Z,1015.50
2019-03-27T06:10:30.114Z,1015.37
2019-03-27T06:11:30.111Z,1015.49
2019-03-27T06:12:30.079Z,1015.47
2019-03-27T06:13:30.061Z,1015.59
2019-03-27T06:14:30.060Z,1015.45
2019-03-27T06:15:30.039Z,1015.52
2019-03-27T06:16:30.058Z,1015.48
2019-03-27T06:17:30.026Z,1015.51
2019-03-27T06:18:30.006Z,1015.55
2019-03-27T06:19:29.997Z,1015.55
2019-03-27T06:20:29.985Z,1015.50
2019-03-27T06:21:30.001Z,1015.67
2019-03-27T06:22:29.964Z,1015.57
2019-03-27T06:23:29.954Z,1015.66
2019-03-27T06:24:29.937Z,1015.60
2019-03-27T06:25:29.932Z,1015.63
2019-03-27T06:26:29.952Z,1015.70
2019-03-27T06:27:29.909Z,1015.69
2019-03-27T06:28:29.903Z,1015.59
2019-03-27T06:29:29.896Z,1015.76
2019-03-27T06:30:29.873Z,1015.74
2019-03-27T06:31:29.888Z,1015.76
2019-03-27T06:32:29.861Z,1015.65
2019-03-27T06:33:29.847Z,1015.66
2019-03-27T06:34:29.840Z,1015.71
2019-03-27T06:35:29.829Z,1015.75
2019-03-27T06:36:29.850Z,1015.74
2019-03-27T06:37:29.802Z,1015.67
2019-03-27T06:38:29.790Z,1015.71
2019-03-27T06:39:29.777Z,1015.74
2019-03-27T06:40:29.777Z,1015.72
2019-03-27T06:41:29.791Z,1015.76
2019-03-27T06:42:29.744Z,1015.80
2019-03-27T06:43:29.732Z,1015.79
2019-03-27T06:44:29.724Z,1015.83
2019-03-27T06:45:29.712Z,1015.74
2019-03-27T06:46:29.737Z,1015.77
2019-03-27T06:47:29.691Z,1015.78
2019-03-27T06:48:29.687Z,1015.76
2019-03-27T06:49:29.673Z,1015.73
2019-03-27T06:50:29.649Z,1015.77
2019-03-27T06:51:39.428Z,1015.76
2019-03-27T06:52:30.633Z,1015.78
2019-03-27T06:53:29.621Z,1015.74
2019-03-27T06:54:29.622Z,1015.74
2019-03-27T06:55:29.609Z,1015.81
2019-03-27T06:56:29.611Z,1015.77
2019-03-27T06:57:29.592Z,1015.75
2019-03-27T06:58:29.582Z,1015.79
2019-03-27T06:59:29.565Z,1015.76
2019-03-27T07:00:29.640Z,1015.78
2019-03-27T07:01:29.570Z,1015.73
2019-03-27T07:02:29.667Z,1015.80
2019-03-27T07:03:29.531Z,1015.73
2019-03-27T07:04:29.518Z,1015.82
2019-03-27T07:05:29.534Z,1015.75
2019-03-27T07:06:29.595Z,1015.76
2019-03-27T07:07:29.495Z,1015.74
2019-03-27T07:08:30.176Z,1015.79
2019-03-27T07:09:29.480Z,1015.84
2019-03-27T07:10:29.471Z,1015.72
2019-03-27T07:11:29.517Z,1015.77
2019-03-27T07:12:29.441Z,1015.70
2019-03-27T07:13:29.437Z,1015.71
2019-03-27T07:14:29.519Z,1015.72
2019-03-27T07:15:29.610Z,1015.75
2019-03-27T07:16:29.638Z,1015.78
2019-03-27T07:17:29.408Z,1015.76
2019-03-27T07:18:39.590Z,1015.77
2019-03-27T07:19:30.436Z,1015.79
2019-03-27T07:20:29.426Z,1015.75
2019-03-27T07:21:29.844Z,1015.76
2019-03-27T07:22:29.408Z,1015.80
2019-03-27T07:23:29.346Z,1015.81
2019-03-27T07:24:29.319Z,1015.81
2019-03-27T07:25:29.332Z,1015.83
2019-03-27T07:26:29.327Z,1015.87
2019-03-27T07:27:29.392Z,1015.90
2019-03-27T07:28:30.094Z,1015.85
2019-03-27T07:29:29.263Z,1015.82
2019-03-27T07:30:29.291Z,1015.81
2019-03-27T07:31:29.936Z,1015.86
2019-03-27T07:32:29.359Z,1015.81
2019-03-27T07:33:29.258Z,1015.88
2019-03-27T07:34:29.249Z,1015.90
2019-03-27T07:35:29.229Z,1015.85
2019-03-27T07:36:29.492Z,1015.80
2019-03-27T07:37:29.188Z,1015.83
2019-03-27T07:38:29.159Z,1015.88
2019-03-27T07:39:29.161Z,1015.85
2019-03-27T07:40:29.137Z,1015.96
2019-03-27T07:41:29.193Z,1016.05
2019-03-27T07:42:29.146Z,1015.88
2019-03-27T07:43:29.111Z,1015.94
2019-03-27T07:44:29.105Z,1015.96
2019-03-27T07:45:29.100Z,1015.97
2019-03-27T07:46:29.070Z,1016.02
2019-03-27T07:47:29.088Z,1015.98
2019-03-27T07:48:29.139Z,1016.00
2019-03-27T07:49:29.055Z,1015.94
2019-03-27T07:50:29.040Z,1015.95
2019-03-27T07:51:29.022Z,1015.96
2019-03-27T07:52:29.038Z,1015.99
2019-03-27T07:53:29.005Z,1015.99
2019-03-27T07:54:28.986Z,1016.00
2019-03-27T07:55:28.974Z,1015.97
2019-03-27T07:56:28.965Z,1016.11
2019-03-27T07:57:29.062Z,1016.03
2019-03-27T07:58:28.946Z,1016.03
2019-03-27T07:59:28.948Z,1016.06
2019-03-27T08:00:28.923Z,1016.05
2019-03-27T08:01:28.914Z,1016.09
2019-03-27T08:02:28.931Z,1016.13
2019-03-27T08:03:28.890Z,1016.11
2019-03-27T08:04:28.943Z,1016.12
2019-03-27T08:05:28.876Z,1016.10
2019-03-27T08:06:28.863Z,1016.24
2019-03-27T08:07:28.917Z,1016.09
2019-03-27T08:08:28.846Z,1016.11
2019-03-27T08:09:28.818Z,1016.05
2019-03-27T08:10:28.859Z,1016.15
2019-03-27T08:11:28.911Z,1016.15
2019-03-27T08:12:28.822Z,1016.15
2019-03-27T08:13:28.776Z,1016.16
2019-03-27T08:14:28.767Z,1016.25
2019-03-27T08:15:28.755Z,1016.22
2019-03-27T08:16:28.746Z,1016.18
2019-03-27T08:17:28.767Z,1016.20
2019-03-27T08:18:28.731Z,1016.33
2019-03-27T08:19:28.718Z,1016.17
2019-03-27T08:20:28.710Z,1016.25
2019-03-27T08:21:31.175Z,1016.23
2019-03-27T08:22:28.714Z,1016.18
2019-03-27T08:23:28.671Z,1016.24
2019-03-27T08:24:28.664Z,1016.13
2019-03-27T08:25:28.662Z,1016.21
2019-03-27T08:26:28.641Z,1016.22
2019-03-27T08:27:28.656Z,1016.26
2019-03-27T08:28:28.625Z,1016.37
2019-03-27T08:29:28.606Z,1016.36
2019-03-27T08:30:28.600Z,1016.39
2019-03-27T08:31:28.575Z,1016.45
2019-03-27T08:32:28.611Z,1016.50
2019-03-27T08:33:28.570Z,1016.42
2019-03-27T08:34:28.557Z,1016.40
2019-03-27T08:35:28.540Z,1016.43
2019-03-27T08:36:28.529Z,1016.34
2019-03-27T08:37:28.553Z,1016.40
2019-03-27T08:38:28.520Z,1016.43
2019-03-27T08:39:28.549Z,1016.36
2019-03-27T08:40:28.486Z,1016.33
2019-03-27T08:41:28.481Z,1016.49
2019-03-27T08:42:28.495Z,1016.56
2019-03-27T08:43:28.458Z,1016.50
2019-03-27T08:44:28.448Z,1016.35
2019-03-27T08:45:28.430Z,1016.29
2019-03-27T08:46:28.434Z,1016.37
2019-03-27T08:47:28.520Z,1016.36
2019-03-27T08:48:28.540Z,1016.34
2019-03-27T08:49:28.403Z,1016.39
2019-03-27T08:50:28.399Z,1016.37
2019-03-27T08:51:28.374Z,1016.45
2019-03-27T08:52:28.395Z,1016.57
2019-03-27T08:53:28.374Z,1016.57
2019-03-27T08:54:28.334Z,1016.60
2019-03-27T08:55:28.338Z,1016.49
2019-03-27T08:56:28.546Z,1016.47
2019-03-27T08:57:28.527Z,1016.52
2019-03-27T08:58:28.331Z,1016.40
2019-03-27T08:59:28.299Z,1016.40
2019-03-27T09:00:28.326Z,1016.47
2019-03-27T09:01:28.272Z,1016.46
2019-03-27T09:02:28.301Z,1016.68
2019-03-27T09:03:28.258Z,1016.54
2019-03-27T09:04:28.275Z,1016.57
2019-03-27T09:05:28.263Z,1016.45
2019-03-27T09:06:34.097Z,1016.49
2019-03-27T09:07:29.243Z,1016.44
2019-03-27T09:08:28.367Z,1016.64
2019-03-27T09:09:28.180Z,1016.43
2019-03-27T09:10:28.165Z,1016.55
2019-03-27T09:11:28.175Z,1016.57
2019-03-27T09:12:28.928Z,1016.55
2019-03-27T09:13:28.254Z,1016.50
2019-03-27T09:14:28.240Z,1016.49
2019-03-27T09:15:28.119Z,1016.59
2019-03-27T09:16:28.105Z,1016.52
2019-03-27T09:17:28.178Z,1016.55
2019-03-27T09:18:28.105Z,1016.55
2019-03-27T09:19:35.569Z,1016.62
2019-03-27T09:20:29.071Z,1016.56
2019-03-27T09:21:28.057Z,1016.54
2019-03-27T09:22:28.074Z,1016.50
2019-03-27T09:23:28.027Z,1016.55
2019-03-27T09:24:28.018Z,1016.55
2019-03-27T09:25:28.009Z,1016.60
2019-03-27T09:26:28.003Z,1016.63
2019-03-27T09:27:28.159Z,1016.65
2019-03-27T09:28:27.989Z,1016.59
2019-03-27T09:29:27.975Z,1016.53
2019-03-27T09:30:28.043Z,1016.57
2019-03-27T09:31:27.959Z,1016.57
2019-03-27T09:32:27.957Z,1016.55
2019-03-27T09:33:27.936Z,1016.51
2019-03-27T09:34:27.924Z,1016.62
2019-03-27T09:35:27.915Z,1016.64
2019-03-27T09:36:27.899Z,1016.58
2019-03-27T09:37:27.901Z,1016.62
2019-03-27T09:38:27.867Z,1016.62
2019-03-27T09:39:27.853Z,1016.59
2019-03-27T09:40:27.892Z,1016.62
2019-03-27T09:41:27.850Z,1016.61
2019-03-27T09:42:27.933Z,1016.59
2019-03-27T09:43:27.818Z,1016.74
2019-03-27T09:44:27.875Z,1016.66
2019-03-27T09:45:27.798Z,1016.70
2019-03-27T09:46:27.791Z,1016.67
2019-03-27T09:47:38.825Z,1016.65
2019-03-27T09:48:27.790Z,1016.90
2019-03-27T09:49:27.739Z,1016.71
2019-03-27T09:50:27.727Z,1016.79
2019-03-27T09:51:27.711Z,1016.82
2019-03-27T09:52:27.723Z,1016.78
2019-03-27T09:53:27.749Z,1016.56
2019-03-27T09:54:27.829Z,1016.60
2019-03-27T09:55:27.685Z,1016.53
2019-03-27T09:56:27.659Z,1016.64
2019-03-27T09:57:27.670Z,1016.75
2019-03-27T09:58:27.640Z,1016.61
2019-03-27T09:59:27.641Z,1016.64
2019-03-27T10:00:27.712Z,1016.56
2019-03-27T10:01:27.599Z,1016.78
2019-03-27T10:02:27.620Z,1016.76
2019-03-27T10:03:27.587Z,1016.77
2019-03-27T10:04:27.609Z,1016.67
2019-03-27T10:05:27.590Z,1016.78
2019-03-27T10:06:27.595Z,1016.67
2019-03-27T10:07:28.541Z,1016.64
2019-03-27T10:08:27.546Z,1016.76
2019-03-27T10:09:27.543Z,1016.84
2019-03-27T10:10:27.523Z,1016.86
2019-03-27T10:11:27.514Z,1016.90
2019-03-27T10:12:27.527Z,1016.90
2019-03-27T10:13:27.486Z,1016.76
2019-03-27T10:14:27.476Z,1016.69
2019-03-27T10:15:27.463Z,1016.73
2019-03-27T10:16:27.460Z,1016.71
2019-03-27T10:17:27.493Z,1016.76
2019-03-27T10:18:27.437Z,1016.71
2019-03-27T10:19:27.433Z,1016.78
2019-03-27T10:20:27.406Z,1016.72
2019-03-27T10:21:27.452Z,1016.72
2019-03-27T10:22:27.439Z,1016.70
2019-03-27T10:23:27.420Z,1016.74
2019-03-27T10:24:27.370Z,1016.75
2019-03-27T10:25:27.359Z,1016.77
2019-03-27T10:26:27.339Z,1016.83
2019-03-27T10:27:29.826Z,1016.77
2019-03-27T10:28:28.133Z,1016.77
2019-03-27T10:29:27.321Z,1016.79
2019-03-27T10:30:27.304Z,1016.87
2019-03-27T10:31:27.374Z,1016.82
2019-03-27T10:32:27.298Z,1016.84
2019-03-27T10:33:27.320Z,1016.83
2019-03-27T10:34:27.274Z,1016.87
2019-03-27T10:35:27.439Z,1016.83
2019-03-27T10:36:27.385Z,1016.81
2019-03-27T10:37:27.260Z,1016.80
2019-03-27T10:38:27.263Z,1016.75
2019-03-27T10:39:27.215Z,1016.83
2019-03-27T10:40:27.210Z,1016.73
2019-03-27T10:41:27.202Z,1016.72
2019-03-27T10:42:27.447Z,1016.68
2019-03-27T10:43:27.165Z,1016.73
2019-03-27T10:44:27.333Z,1016.72
2019-03-27T10:45:27.144Z,1016.66
2019-03-27T10:46:27.136Z,1016.70
2019-03-27T10:47:27.251Z,1016.69
2019-03-27T10:48:27.111Z,1016.72
2019-03-27T10:49:27.115Z,1016.78
2019-03-27T10:50:27.130Z,1016.76
2019-03-27T10:51:27.105Z,1016.68
2019-03-27T10:52:27.108Z,1016.76
2019-03-27T10:53:27.065Z,1016.66
2019-03-27T10:54:27.080Z,1016.69
2019-03-27T10:55:27.038Z,1016.68
2019-03-27T10:56:27.046Z,1016.70
2019-03-27T10:57:27.049Z,1016.68
2019-03-27T10:58:27.145Z,1016.70
2019-03-27T10:59:27.036Z,1016.66
2019-03-27T11:00:27.223Z,1016.71
2019-03-27T11:01:26.991Z,1016.70
2019-03-27T11:02:27.070Z,1016.69
2019-03-27T11:03:26.960Z,1016.69
2019-03-27T11:04:26.949Z,1016.67
2019-03-27T11:05:26.936Z,1016.70
2019-03-27T11:06:26.918Z,1016.67
2019-03-27T11:07:26.954Z,1016.72
2019-03-27T11:08:26.932Z,1016.70
2019-03-27T11:09:27.152Z,1016.75
2019-03-27T11:10:26.880Z,1016.65
2019-03-27T11:11:26.869Z,1016.65
2019-03-27T11:12:26.885Z,1016.67
2019-03-27T11:13:26.849Z,1016.68
2019-03-27T11:14:37.086Z,1016.55
2019-03-27T11:15:27.838Z,1016.72
2019-03-27T11:16:26.825Z,1016.69
2019-03-27T11:17:26.862Z,1016.66
2019-03-27T11:18:26.796Z,1016.65
2019-03-27T11:19:26.790Z,1016.72
2019-03-27T11:20:31.139Z,1016.68
2019-03-27T11:21:26.762Z,1016.75
2019-03-27T11:23:35.644Z,1016.76
2019-03-27T11:24:35.608Z,1016.79
2019-03-27T11:25:35.593Z,1016.83
2019-03-27T11:26:35.589Z,1016.76
2019-03-27T11:27:35.602Z,1016.79
2019-03-27T11:28:35.575Z,1016.70
2019-03-27T11:29:35.549Z,1016.65
2019-03-27T11:30:35.545Z,1016.74
2019-03-27T11:31:35.533Z,1016.62
2019-03-27T11:32:35.548Z,1016.71
2019-03-27T11:33:35.510Z,1016.59
2019-03-27T11:34:35.499Z,1016.60
2019-03-27T11:35:35.497Z,1016.65
2019-03-27T11:36:35.480Z,1016.77
2019-03-27T11:37:35.510Z,1016.85
2019-03-27T11:38:37.479Z,1016.64
2019-03-27T11:39:35.443Z,1016.55
2019-03-27T11:40:35.450Z,1016.65
2019-03-27T11:41:35.426Z,1016.65
2019-03-27T11:42:35.448Z,1016.57
2019-03-27T11:43:35.399Z,1016.56
2019-03-27T11:44:35.392Z,1016.61
2019-03-27T11:45:35.381Z,1016.60
2019-03-27T11:46:35.372Z,1016.55
2019-03-27T11:47:35.390Z,1016.62
2019-03-27T11:48:35.350Z,1016.65
2019-03-27T11:49:35.337Z,1016.69
2019-03-27T11:50:44.877Z,1016.67
2019-03-27T11:51:36.318Z,1016.65
2019-03-27T11:52:35.339Z,1016.63
2019-03-27T11:53:35.294Z,1016.59
2019-03-27T11:54:35.284Z,1016.60
2019-03-27T11:55:35.275Z,1016.55
2019-03-27T11:56:35.262Z,1016.47
2019-03-27T11:57:35.255Z,1016.56
2019-03-27T11:58:35.265Z,1016.55
2019-03-27T11:59:35.232Z,1016.51
2019-03-27T12:00:35.225Z,1016.50
2019-03-27T12:01:42.049Z,1016.52
2019-03-27T12:02:36.201Z,1016.62
2019-03-27T12:03:35.212Z,1016.67
2019-03-27T12:04:35.171Z,1016.62
2019-03-27T12:05:35.175Z,1016.60
2019-03-27T12:06:35.161Z,1016.59